createdAt,value
2023-01-18T00:01:19.295Z,98210.66
2023-01-18T00:03:46.275Z,98222.63
2023-01-18T00:06:13.299Z,98216.00
2023-01-18T00:08:41.023Z,98209.69
2023-01-18T00:11:08.996Z,98206.00
2023-01-18T00:13:35.943Z,98201.50
2023-01-18T00:16:21.749Z,98209.50
2023-01-18T00:18:56.214Z,98204.34
2023-01-18T00:21:24.229Z,98203.31
2023-01-18T00:23:51.274Z,98199.34
2023-01-18T00:26:18.082Z,98199.22
2023-01-18T00:28:44.725Z,98198.56
2023-01-18T00:31:20.633Z,98200.72
2023-01-18T00:33:49.115Z,98194.56
2023-01-18T00:36:16.543Z,98204.56
2023-01-18T00:38:43.303Z,98202.06
2023-01-18T00:41:10.108Z,98201.25
2023-01-18T00:43:39.499Z,98207.25
2023-01-18T00:46:20.779Z,98206.03
2023-01-18T00:48:48.425Z,98218.03
2023-01-18T00:51:21.294Z,98217.72
2023-01-18T00:53:47.908Z,98221.53
2023-01-18T00:56:18.743Z,98229.19
2023-01-18T00:58:45.392Z,98233.50
2023-01-18T01:01:12.936Z,98237.66
2023-01-18T01:03:58.551Z,98238.00
2023-01-18T01:06:44.530Z,98243.31
2023-01-18T01:09:16.560Z,98240.00
2023-01-18T01:12:03.574Z,98238.69
2023-01-18T01:14:49.163Z,98231.72
2023-01-18T01:17:34.532Z,98239.50
2023-01-18T01:20:19.950Z,98241.53
2023-01-18T01:23:05.324Z,98242.19
2023-01-18T01:25:50.698Z,98231.56
2023-01-18T01:28:17.507Z,98245.84
2023-01-18T01:30:44.651Z,98251.84
2023-01-18T01:33:11.512Z,98252.81
2023-01-18T01:35:38.158Z,98242.53
2023-01-18T01:38:04.822Z,98252.34
2023-01-18T01:40:31.391Z,98261.19
2023-01-18T01:42:58.351Z,98251.69
2023-01-18T01:45:30.128Z,98264.50
2023-01-18T01:47:57.433Z,98265.31
2023-01-18T01:50:34.619Z,98254.84
2023-01-18T01:53:02.515Z,98260.50
2023-01-18T01:55:33.065Z,98262.66
2023-01-18T01:58:07.675Z,98270.66
2023-01-18T02:00:35.182Z,98263.50
2023-01-18T02:03:10.680Z,98270.84
2023-01-18T02:05:43.792Z,98269.34
2023-01-18T02:08:12.903Z,98259.72
2023-01-18T02:10:39.946Z,98287.31
2023-01-18T02:13:10.120Z,98285.50
2023-01-18T02:15:43.335Z,98279.31
2023-01-18T02:18:32.551Z,98287.50
2023-01-18T02:21:28.398Z,98300.63
2023-01-18T02:24:37.193Z,98286.31
2023-01-18T02:27:11.496Z,98280.34
2023-01-18T02:29:43.692Z,98278.84
2023-01-18T02:32:18.119Z,98265.38
2023-01-18T02:35:04.863Z,98270.72
2023-01-18T02:37:39.903Z,98266.25
2023-01-18T02:40:24.705Z,98260.78
2023-01-18T02:43:11.284Z,98255.47
2023-01-18T02:46:08.201Z,98254.31
2023-01-18T02:48:43.508Z,98274.44
2023-01-18T02:51:10.848Z,98280.59
2023-01-18T02:53:41.231Z,98294.91
2023-01-18T02:56:30.998Z,98291.56
2023-01-18T02:58:59.805Z,98279.44
2023-01-18T03:01:42.898Z,98303.00
2023-01-18T03:04:18.619Z,98305.00
2023-01-18T03:06:49.015Z,98303.66
2023-01-18T03:09:21.403Z,98300.34
2023-01-18T03:11:57.063Z,98304.00
2023-01-18T03:14:39.865Z,98299.69
2023-01-18T03:17:36.303Z,98311.16
2023-01-18T03:20:09.828Z,98328.59
2023-01-18T03:23:05.423Z,98339.91
2023-01-18T03:25:35.101Z,98344.72
2023-01-18T03:28:25.614Z,98347.91
2023-01-18T03:31:14.119Z,98360.34
2023-01-18T03:33:47.141Z,98366.53
2023-01-18T03:36:25.647Z,98365.03
2023-01-18T03:39:00.553Z,98370.53
2023-01-18T03:41:31.281Z,98373.19
2023-01-18T03:44:03.162Z,98384.31
2023-01-18T03:46:32.467Z,98382.84
2023-01-18T03:48:59.971Z,98378.69
2023-01-18T03:51:32.832Z,98360.06
2023-01-18T03:54:23.193Z,98378.50
2023-01-18T03:56:59.557Z,98378.31
2023-01-18T03:59:30.252Z,98375.84
2023-01-18T04:01:56.909Z,98344.94
2023-01-18T04:04:23.647Z,98367.19
2023-01-18T04:06:50.161Z,98361.22
2023-01-18T04:09:16.812Z,98377.00
2023-01-18T04:11:43.350Z,98382.19
2023-01-18T04:14:10.161Z,98378.69
2023-01-18T04:16:36.699Z,98380.84
2023-01-18T04:19:03.614Z,98383.50
2023-01-18T04:21:30.242Z,98384.50
2023-01-18T04:23:56.818Z,98404.44
2023-01-18T04:26:23.405Z,98413.09
2023-01-18T04:28:50.043Z,98411.94
2023-01-18T04:31:16.737Z,98409.94
2023-01-18T04:33:43.436Z,98402.13
2023-01-18T04:36:10.056Z,98401.28
2023-01-18T04:38:36.641Z,98399.97
2023-01-18T04:41:04.692Z,98382.97
2023-01-18T04:43:31.373Z,98369.53
2023-01-18T04:45:58.333Z,98375.81
2023-01-18T04:48:25.576Z,98379.81
2023-01-18T04:50:52.362Z,98395.91
2023-01-18T04:53:19.175Z,98408.00
2023-01-18T04:55:46.020Z,98405.50
2023-01-18T04:58:12.811Z,98409.31
2023-01-18T05:00:42.427Z,98407.00
2023-01-18T05:03:10.738Z,98412.63
2023-01-18T05:05:37.452Z,98412.59
2023-01-18T05:08:04.229Z,98424.22
2023-01-18T05:10:30.952Z,98430.38
2023-01-18T05:12:57.970Z,98424.91
2023-01-18T05:15:24.761Z,98435.06
2023-01-18T05:17:51.332Z,98432.22
2023-01-18T05:20:18.092Z,98447.53
2023-01-18T05:22:44.687Z,98450.88
2023-01-18T05:25:11.327Z,98459.16
2023-01-18T05:27:38.102Z,98454.88
2023-01-18T05:30:06.763Z,98447.72
2023-01-18T05:32:33.542Z,98461.69
2023-01-18T05:35:00.335Z,98462.66
2023-01-18T05:37:27.118Z,98471.28
2023-01-18T05:39:53.822Z,98457.16
2023-01-18T05:42:20.505Z,98454.00
2023-01-18T05:44:47.128Z,98466.47
2023-01-18T05:47:13.699Z,98466.81
2023-01-18T05:49:41.932Z,98465.81
2023-01-18T05:52:08.718Z,98478.13
2023-01-18T05:54:35.326Z,98486.25
2023-01-18T05:57:01.910Z,98501.03
2023-01-18T05:59:28.452Z,98513.81
2023-01-18T06:01:55.217Z,98530.28
2023-01-18T06:04:22.196Z,98529.13
2023-01-18T06:06:48.798Z,98527.97
2023-01-18T06:09:15.358Z,98528.03
2023-01-18T06:11:41.936Z,98529.03
2023-01-18T06:14:08.833Z,98527.75
2023-01-18T06:16:35.582Z,98535.22
2023-01-18T06:19:02.314Z,98541.88
2023-01-18T06:21:28.940Z,98537.09
2023-01-18T06:23:55.500Z,98538.56
2023-01-18T06:26:23.846Z,98543.41
2023-01-18T06:28:50.421Z,98532.78
2023-01-18T06:31:17.102Z,98537.63
2023-01-18T06:33:43.762Z,98561.22
2023-01-18T06:36:10.317Z,98554.25
2023-01-18T06:38:36.960Z,98561.75
2023-01-18T06:41:03.572Z,98570.06
2023-01-18T06:43:30.448Z,98573.25
2023-01-18T06:45:57.332Z,98563.44
2023-01-18T06:48:26.244Z,98562.47
2023-01-18T06:50:55.945Z,98554.47
2023-01-18T06:53:22.582Z,98548.13
2023-01-18T06:56:10.420Z,98560.78
2023-01-18T06:58:37.462Z,98554.44
2023-01-18T07:01:04.263Z,98575.59
2023-01-18T07:03:31.716Z,98591.56
2023-01-18T07:06:00.616Z,98605.19
2023-01-18T07:08:30.942Z,98604.72
2023-01-18T07:10:58.178Z,98601.22
2023-01-18T07:13:25.616Z,98600.91
2023-01-18T07:15:54.870Z,98592.75
2023-01-18T07:18:23.034Z,98585.78
2023-01-18T07:21:01.566Z,98601.41
2023-01-18T07:23:29.662Z,98606.56
2023-01-18T07:26:07.543Z,98612.56
2023-01-18T07:28:35.244Z,98601.06
2023-01-18T07:31:03.163Z,98609.84
2023-01-18T07:33:30.726Z,98609.50
2023-01-18T07:35:58.562Z,98595.06
2023-01-18T07:38:26.146Z,98602.19
2023-01-18T07:40:59.642Z,98616.69
2023-01-18T07:43:26.253Z,98616.00
2023-01-18T07:45:54.337Z,98624.69
2023-01-18T07:48:21.969Z,98618.59
2023-01-18T07:50:59.931Z,98610.75
2023-01-18T07:53:27.489Z,98622.75
2023-01-18T07:55:55.089Z,98628.59
2023-01-18T07:58:21.682Z,98641.25
2023-01-18T08:00:48.424Z,98632.44
2023-01-18T08:03:17.476Z,98628.09
2023-01-18T08:05:44.937Z,98642.75
2023-01-18T08:08:13.159Z,98648.41
2023-01-18T08:10:40.139Z,98648.91
2023-01-18T08:13:09.219Z,98651.59
2023-01-18T08:15:36.369Z,98642.44
2023-01-18T08:18:05.188Z,98637.97
2023-01-18T08:20:32.350Z,98649.28
2023-01-18T08:23:01.604Z,98657.06
2023-01-18T08:25:29.980Z,98659.28
2023-01-18T08:28:00.525Z,98664.63
2023-01-18T08:30:35.412Z,98674.75
2023-01-18T08:33:03.261Z,98687.72
2023-01-18T08:35:32.904Z,98695.72
2023-01-18T08:38:01.034Z,98709.63
2023-01-18T08:40:28.636Z,98711.44
2023-01-18T08:43:01.001Z,98724.13
2023-01-18T08:45:28.487Z,98746.88
2023-01-18T08:48:03.586Z,98744.50
2023-01-18T08:50:32.017Z,98742.38
2023-01-18T08:53:00.412Z,98753.88
2023-01-18T08:55:29.962Z,98747.22
2023-01-18T08:57:58.841Z,98749.88
2023-01-18T09:00:30.112Z,98759.22
2023-01-18T09:02:57.883Z,98754.94
2023-01-18T09:05:27.164Z,98770.13
2023-01-18T09:07:55.307Z,98767.44
2023-01-18T09:10:22.576Z,98770.13
2023-01-18T09:12:51.105Z,98770.41
2023-01-18T09:15:18.957Z,98792.75
2023-01-18T09:17:46.207Z,98798.59
2023-01-18T09:20:12.997Z,98808.94
2023-01-18T09:22:39.740Z,98807.47
2023-01-18T09:25:06.871Z,98817.97
2023-01-18T09:27:33.572Z,98817.28
2023-01-18T09:30:00.306Z,98827.03
2023-01-18T09:32:27.516Z,98828.41
2023-01-18T09:34:54.855Z,98833.88
2023-01-18T09:37:22.179Z,98842.25
2023-01-18T09:39:52.780Z,98852.22
2023-01-18T09:42:27.343Z,98851.03
2023-01-18T09:45:03.890Z,98848.59
2023-01-18T09:47:41.432Z,98858.75
2023-01-18T09:50:19.139Z,98877.84
2023-01-18T09:52:51.727Z,98877.63
2023-01-18T09:55:37.082Z,98884.63
2023-01-18T09:58:03.584Z,98888.13
2023-01-18T10:00:35.006Z,98900.44
2023-01-18T10:03:08.853Z,98905.25
2023-01-18T10:05:40.626Z,98902.88
2023-01-18T10:08:18.255Z,98910.56
2023-01-18T10:11:02.659Z,98911.25
2023-01-18T10:13:58.927Z,98915.97
2023-01-18T10:16:26.535Z,98923.19
2023-01-18T10:18:57.213Z,98926.47
2023-01-18T10:21:37.793Z,98933.09
2023-01-18T10:24:19.210Z,98937.06
2023-01-18T10:26:48.368Z,98942.53
2023-01-18T10:29:35.556Z,98952.63
2023-01-18T10:32:08.539Z,98945.34
2023-01-18T10:34:39.272Z,98948.63
2023-01-18T10:37:14.989Z,98948.78
2023-01-18T10:39:50.986Z,98937.28
2023-01-18T10:42:31.205Z,98937.06
2023-01-18T10:44:57.866Z,98937.69
2023-01-18T10:47:24.554Z,98930.13
2023-01-18T10:49:56.965Z,98929.56
2023-01-18T10:52:27.884Z,98930.00
2023-01-18T10:55:02.761Z,98922.75
2023-01-18T10:57:37.304Z,98926.63
2023-01-18T11:00:12.383Z,98908.84
2023-01-18T11:02:39.851Z,98914.09
2023-01-18T11:05:31.259Z,98919.41
2023-01-18T11:08:12.529Z,98905.00
2023-01-18T11:10:41.533Z,98903.44
2023-01-18T11:13:24.595Z,98897.34
2023-01-18T11:16:18.088Z,98898.94
2023-01-18T11:18:57.286Z,98906.09
2023-01-18T11:21:25.302Z,98899.47
2023-01-18T11:23:54.129Z,98890.78
2023-01-18T11:26:23.504Z,98903.63
2023-01-18T11:29:02.090Z,98899.28
2023-01-18T11:31:31.815Z,98896.56
2023-01-18T11:34:02.212Z,98894.66
2023-01-18T11:36:43.522Z,98890.50
2023-01-18T11:39:22.505Z,98895.31
2023-01-18T11:41:49.202Z,98890.22
2023-01-18T11:44:27.403Z,98891.94
2023-01-18T11:46:58.855Z,98891.50
2023-01-18T11:49:39.153Z,98891.13
2023-01-18T11:52:20.089Z,98893.94
2023-01-18T11:55:00.277Z,98900.22
2023-01-18T11:57:28.286Z,98903.75
2023-01-18T11:59:54.905Z,98903.38
2023-01-18T12:02:56.197Z,98900.88
2023-01-18T12:05:35.862Z,98896.44
2023-01-18T12:08:13.884Z,98883.06
2023-01-18T12:11:04.849Z,98896.06
2023-01-18T12:13:59.592Z,98900.28
2023-01-18T12:16:53.862Z,98904.78
2023-01-18T12:19:52.873Z,98908.44
2023-01-18T12:22:34.229Z,98906.59
2023-01-18T12:25:20.677Z,98905.97
2023-01-18T12:28:07.529Z,98901.63
2023-01-18T12:30:41.795Z,98910.31
2023-01-18T12:33:43.534Z,98919.66
2023-01-18T12:36:37.937Z,98928.00
2023-01-18T12:39:46.197Z,98927.31
2023-01-18T12:42:22.038Z,98928.16
2023-01-18T12:45:24.105Z,98933.19
2023-01-18T12:48:12.409Z,98932.84
2023-01-18T12:50:40.625Z,98946.03
2023-01-18T12:53:21.004Z,98945.53
2023-01-18T12:55:51.146Z,98943.69
2023-01-18T12:58:23.380Z,98957.53
2023-01-18T13:00:57.105Z,98961.22
2023-01-18T13:03:29.377Z,98962.19
2023-01-18T13:05:57.997Z,98957.69
2023-01-18T13:08:35.166Z,98960.19
2023-01-18T13:11:33.094Z,98952.69
2023-01-18T13:14:11.461Z,98949.34
2023-01-18T13:16:46.308Z,98954.56
2023-01-18T13:19:24.798Z,98951.03
2023-01-18T13:21:54.743Z,98958.38
2023-01-18T13:24:41.641Z,98955.72
2023-01-18T13:27:16.448Z,98954.03
2023-01-18T13:29:44.177Z,98954.03
2023-01-18T13:32:33.355Z,98954.69
2023-01-18T13:35:20.711Z,98949.38
2023-01-18T13:38:12.687Z,98946.72
2023-01-18T13:40:51.829Z,98943.72
2023-01-18T13:43:36.691Z,98943.72
2023-01-18T13:46:06.393Z,98943.53
2023-01-18T13:48:45.130Z,98946.06
2023-01-18T13:51:30.204Z,98956.06
2023-01-18T13:53:56.708Z,98953.69
2023-01-18T13:56:30.696Z,98963.56
2023-01-18T13:59:03.351Z,98964.41
2023-01-18T14:01:36.663Z,98967.44
2023-01-18T14:04:29.115Z,98976.13
2023-01-18T14:06:59.276Z,98965.94
2023-01-18T14:09:41.535Z,98969.59
2023-01-18T14:12:09.847Z,98977.44
2023-01-18T14:14:56.261Z,98963.06
2023-01-18T14:17:25.314Z,98961.44
2023-01-18T14:20:40.315Z,98956.41
2023-01-18T14:23:41.115Z,98960.91
2023-01-18T14:26:14.056Z,98963.06
2023-01-18T14:28:49.538Z,98967.75
2023-01-18T14:31:32.711Z,98970.59
2023-01-18T14:34:33.620Z,98963.72
2023-01-18T14:37:00.525Z,98967.22
2023-01-18T14:39:30.079Z,98953.88
2023-01-18T14:42:00.151Z,98940.84
2023-01-18T14:44:57.042Z,98951.22
2023-01-18T14:47:30.759Z,98951.34
2023-01-18T14:49:57.966Z,98953.84
2023-01-18T14:52:30.883Z,98970.69
2023-01-18T14:54:57.561Z,98954.66
2023-01-18T14:57:24.616Z,98967.84
2023-01-18T14:59:57.152Z,98965.31
2023-01-18T15:02:27.560Z,98967.34
2023-01-18T15:05:16.982Z,98969.03
2023-01-18T15:07:46.419Z,98955.50
2023-01-18T15:10:16.698Z,98959.19
2023-01-18T15:12:50.164Z,98950.66
2023-01-18T15:15:31.019Z,98954.66
2023-01-18T15:18:06.255Z,98965.31
2023-01-18T15:20:33.907Z,98971.66
2023-01-18T15:23:00.974Z,98975.09
2023-01-18T15:25:32.029Z,98977.91
2023-01-18T15:28:18.415Z,98981.91
2023-01-18T15:30:54.352Z,98989.22
2023-01-18T15:33:23.476Z,98985.69
2023-01-18T15:35:53.155Z,98995.03
2023-01-18T15:38:20.388Z,98993.84
2023-01-18T15:41:00.692Z,98988.50
2023-01-18T15:43:41.972Z,99002.00
2023-01-18T15:46:12.077Z,99004.66
2023-01-18T15:49:05.881Z,98997.78
2023-01-18T15:51:56.309Z,99002.16
2023-01-18T15:54:31.704Z,99009.59
2023-01-18T15:57:11.960Z,99003.94
2023-01-18T15:59:42.385Z,99015.44
2023-01-18T16:02:09.101Z,99007.06
2023-01-18T16:04:35.996Z,99021.25
2023-01-18T16:07:30.350Z,99017.88
2023-01-18T16:10:32.459Z,99025.38
2023-01-18T16:13:37.331Z,99018.34
2023-01-18T16:16:22.441Z,99017.34
2023-01-18T16:19:35.771Z,99016.94
2023-01-18T16:22:05.194Z,99021.09
2023-01-18T16:24:57.358Z,99024.50
2023-01-18T16:27:29.714Z,99031.31
2023-01-18T16:30:17.279Z,99032.78
2023-01-18T16:32:44.014Z,99033.63
2023-01-18T16:35:19.014Z,99026.59
2023-01-18T16:37:46.060Z,99020.28
2023-01-18T16:40:13.687Z,99024.31
2023-01-18T16:43:01.613Z,99018.44
2023-01-18T16:45:30.451Z,99033.34
2023-01-18T16:47:57.639Z,99019.84
2023-01-18T16:50:24.526Z,99016.22
2023-01-18T16:52:51.128Z,98999.53
2023-01-18T16:55:18.245Z,99010.44
2023-01-18T16:57:45.585Z,99001.13
2023-01-18T17:00:21.559Z,98999.81
2023-01-18T17:02:48.511Z,99003.84
2023-01-18T17:05:16.552Z,99015.34
2023-01-18T17:07:44.139Z,99018.13
2023-01-18T17:10:20.089Z,99012.63
2023-01-18T17:12:46.749Z,99020.75
2023-01-18T17:15:13.541Z,99030.91
2023-01-18T17:17:40.378Z,99031.19
2023-01-18T17:20:18.693Z,99030.16
2023-01-18T17:22:45.865Z,99031.13
2023-01-18T17:25:13.034Z,99031.63
2023-01-18T17:27:39.758Z,99036.41
2023-01-18T17:30:07.199Z,99051.72
2023-01-18T17:32:34.282Z,99058.03
2023-01-18T17:35:00.909Z,99062.69
2023-01-18T17:37:27.535Z,99068.19
2023-01-18T17:40:10.254Z,99067.88
2023-01-18T17:42:40.413Z,99072.81
2023-01-18T17:45:09.970Z,99084.69
2023-01-18T17:47:39.053Z,99096.03
2023-01-18T17:50:09.095Z,99096.41
2023-01-18T17:52:36.589Z,99102.75
2023-01-18T17:55:03.603Z,99113.75
2023-01-18T17:57:30.283Z,99114.44
2023-01-18T17:59:57.030Z,99111.94
2023-01-18T18:02:25.461Z,99119.09
2023-01-18T18:04:52.574Z,99119.25
2023-01-18T18:07:19.313Z,99122.88
2023-01-18T18:09:45.991Z,99121.06
2023-01-18T18:12:12.785Z,99129.47
2023-01-18T18:14:40.246Z,99130.94
2023-01-18T18:17:08.071Z,99132.66
2023-01-18T18:19:34.687Z,99132.03
2023-01-18T18:22:01.679Z,99126.38
2023-01-18T18:24:28.334Z,99131.03
2023-01-18T18:26:54.959Z,99135.53
2023-01-18T18:29:21.543Z,99151.38
2023-01-18T18:31:48.125Z,99157.69
2023-01-18T18:34:14.740Z,99160.50
2023-01-18T18:36:41.341Z,99159.66
2023-01-18T18:39:08.910Z,99160.94
2023-01-18T18:41:35.529Z,99171.31
2023-01-18T18:44:02.173Z,99177.34
2023-01-18T18:46:29.094Z,99177.09
2023-01-18T18:48:56.499Z,99166.88
2023-01-18T18:51:24.000Z,99180.00
2023-01-18T18:53:51.016Z,99173.91
2023-01-18T18:56:18.379Z,99183.94
2023-01-18T18:58:47.366Z,99195.13
2023-01-18T19:01:26.083Z,99191.25
2023-01-18T19:03:54.293Z,99191.34
2023-01-18T19:06:23.900Z,99195.91
2023-01-18T19:08:51.008Z,99191.34
2023-01-18T19:11:19.054Z,99201.63
2023-01-18T19:13:48.550Z,99199.09
2023-01-18T19:16:16.505Z,99207.34
2023-01-18T19:18:43.171Z,99212.81
2023-01-18T19:21:09.711Z,99219.16
2023-01-18T19:23:36.540Z,99229.22
2023-01-18T19:26:03.974Z,99223.88
2023-01-18T19:28:31.292Z,99225.94
2023-01-18T19:31:05.606Z,99221.97
2023-01-18T19:33:32.698Z,99212.59
2023-01-18T19:36:10.092Z,99200.25
2023-01-18T19:38:45.767Z,99214.09
2023-01-18T19:41:14.192Z,99216.25
2023-01-18T19:43:42.692Z,99205.50
2023-01-18T19:46:11.329Z,99219.22
2023-01-18T19:48:39.462Z,99219.53
2023-01-18T19:51:22.108Z,99228.53
2023-01-18T19:53:51.884Z,99231.19
2023-01-18T19:56:18.543Z,99245.22
2023-01-18T19:58:45.296Z,99244.03
2023-01-18T20:01:22.981Z,99243.06
2023-01-18T20:03:53.478Z,99241.25
2023-01-18T20:06:20.531Z,99229.91
2023-01-18T20:08:50.354Z,99226.91
2023-01-18T20:11:17.281Z,99224.41
2023-01-18T20:13:48.928Z,99236.00
2023-01-18T20:16:16.068Z,99227.75
2023-01-18T20:18:42.819Z,99233.44
2023-01-18T20:21:12.375Z,99235.84
2023-01-18T20:23:39.282Z,99227.00
2023-01-18T20:26:06.774Z,99233.63
2023-01-18T20:28:35.661Z,99207.56
2023-01-18T20:31:05.938Z,99210.75
2023-01-18T20:33:33.425Z,99207.03
2023-01-18T20:36:01.825Z,99221.06
2023-01-18T20:38:29.073Z,99212.81
2023-01-18T20:40:56.843Z,99221.81
2023-01-18T20:43:23.667Z,99217.47
2023-01-18T20:46:10.135Z,99211.03
2023-01-18T20:48:38.323Z,99209.38
2023-01-18T20:51:07.485Z,99193.16
2023-01-18T20:53:34.680Z,99207.69
2023-01-18T20:56:03.693Z,99203.66
2023-01-18T20:58:30.500Z,99191.41
2023-01-18T21:00:57.192Z,99203.28
2023-01-18T21:03:23.829Z,99201.91
2023-01-18T21:05:50.490Z,99200.81
2023-01-18T21:08:18.211Z,99208.72
2023-01-18T21:10:44.896Z,99200.66
2023-01-18T21:13:11.880Z,99207.66
2023-01-18T21:15:41.696Z,99209.63
2023-01-18T21:18:08.452Z,99211.31
2023-01-18T21:20:36.458Z,99210.78
2023-01-18T21:23:03.191Z,99211.91
2023-01-18T21:25:29.822Z,99207.47
2023-01-18T21:27:58.099Z,99211.69
2023-01-18T21:30:25.332Z,99222.06
2023-01-18T21:32:52.012Z,99211.69
2023-01-18T21:35:18.896Z,99215.22
2023-01-18T21:37:45.557Z,99215.66
2023-01-18T21:40:12.412Z,99223.63
2023-01-18T21:42:58.090Z,99220.16
2023-01-18T21:45:43.340Z,99227.88
2023-01-18T21:48:09.985Z,99235.88
2023-01-18T21:50:58.918Z,99252.38
2023-01-18T21:53:44.057Z,99254.88
2023-01-18T21:56:10.951Z,99257.16
2023-01-18T21:58:58.036Z,99252.13
2023-01-18T22:01:34.284Z,99254.63
2023-01-18T22:04:21.540Z,99251.25
2023-01-18T22:06:48.728Z,99255.31
2023-01-18T22:09:15.737Z,99261.31
2023-01-18T22:11:43.144Z,99260.22
2023-01-18T22:14:10.706Z,99261.91
2023-01-18T22:16:37.859Z,99260.91
2023-01-18T22:19:05.226Z,99261.44
2023-01-18T22:21:33.280Z,99254.88
2023-01-18T22:24:00.464Z,99257.38
2023-01-18T22:26:29.548Z,99259.47
2023-01-18T22:28:56.169Z,99261.31
2023-01-18T22:31:23.659Z,99252.06
2023-01-18T22:33:51.055Z,99265.63
2023-01-18T22:36:18.372Z,99244.22
2023-01-18T22:38:45.638Z,99263.66
2023-01-18T22:41:17.875Z,99263.66
2023-01-18T22:43:45.969Z,99257.28
2023-01-18T22:46:15.877Z,99270.00
2023-01-18T22:48:43.334Z,99266.22
2023-01-18T22:51:13.488Z,99276.69
2023-01-18T22:53:41.403Z,99252.63
2023-01-18T22:56:11.577Z,99255.41
2023-01-18T22:58:38.200Z,99257.66
2023-01-18T23:01:25.104Z,99257.38
2023-01-18T23:03:55.394Z,99261.00
2023-01-18T23:06:22.198Z,99263.22
2023-01-18T23:08:51.244Z,99254.03
2023-01-18T23:11:27.180Z,99258.50
2023-01-18T23:14:16.985Z,99254.59
2023-01-18T23:17:03.363Z,99249.16
2023-01-18T23:19:30.955Z,99246.78
2023-01-18T23:21:58.001Z,99245.41
2023-01-18T23:24:27.400Z,99257.16
2023-01-18T23:26:54.276Z,99236.72
2023-01-18T23:29:21.244Z,99253.81
2023-01-18T23:31:47.874Z,99241.63
2023-01-18T23:34:14.498Z,99254.94
2023-01-18T23:36:41.446Z,99253.94
2023-01-18T23:39:26.680Z,99250.19
2023-01-18T23:42:12.211Z,99239.28
2023-01-18T23:44:57.585Z,99257.75
2023-01-18T23:47:42.853Z,99259.25
2023-01-18T23:50:28.424Z,99263.59
2023-01-18T23:53:13.938Z,99254.97
2023-01-18T23:55:41.578Z,99264.34
2023-01-18T23:58:08.374Z,99260.03
